KPIA

General Downing - Peoria International Airport

Peoria, Illinois, USA
METAR KPIA 142335Z 36008G15KT 3/4SM R04/4500VP6000FT BR OVC002 03/03 A3018 RMK AO2 T00330033 $
Observed Flight Rules
Dec-14 @ 23:35 UTC (22 minutes ago) Instrument Flight Rules
Wind Visibility Clouds Conditions
360° at 8 knots
 Gusting to 15 knots
3/4 miles
  • Overcast at 200' AGL
  • Mist
Temperatures Readings
Current 3°C / 37°F
Dewpoint 3°C / 37°F
Humidity 100%
Altimeter 30.18" Hg
Pressure 1022 hPa
Elevation 205
METAR KPIA 142335Z 36008G15KT 3/4SM R04/4500VP6000FT BR OVC002 03/03 A3018 RMK AO2 T00330033 $
Observed Flight Rules
Dec-14 @ 23:35 UTC
(22 minutes ago)
LIFR
Wind Visibility
360° at 8 knots
 Gusting to 15 knots
3/4 miles
Clouds
  • Overcast at 200' AGL
Conditions
  • Mist
Temperature Dewpoint
3°C / 37°F 3°C / 37°F
Humidity Altimeter Pressure
100% 30.18" Hg 1022 hPa